Time;durP1;ratioP1;P1;durP2;ratioP2;P2;SDS_P1;SDS_P2;PMS_P1;PMS_P2;Temp;Humidity;BMP_temperature;BMP_pressure;BME280_temperature;BME280_humidity;BME280_pressure;Samples;Min_cycle;Max_cycle;Signal;HPM_P1;HPM_P2
2023/06/27 00:01:55;;;;;;;0.40;0.40;;;;;;;13.64;100.00;100221.56;105502;1261;73891;-42
2023/06/27 00:04:23;;;;;;;0.40;0.40;;;;;;;13.70;100.00;100217.36;105566;1257;63942;-43
2023/06/27 00:06:51;;;;;;;1.80;0.30;;;;;;;13.76;100.00;100217.84;105527;1258;71942;-44
2023/06/27 00:09:19;;;;;;;0.30;0.30;;;;;;;13.83;100.00;100221.11;105538;1262;60482;-43
2023/06/27 00:11:46;;;;;;;2.90;0.50;;;;;;;13.87;100.00;100231.00;105590;1262;60332;-42
2023/06/27 00:14:14;;;;;;;0.30;0.30;;;;;;;13.90;100.00;100232.78;105535;1262;73802;-44
2023/06/27 00:16:42;;;;;;;1.40;0.30;;;;;;;13.94;100.00;100242.36;105538;1257;65216;-42
2023/06/27 00:19:10;;;;;;;0.30;0.30;;;;;;;13.97;100.00;100249.70;105516;1260;72670;-45
2023/06/27 00:21:38;;;;;;;3.10;0.50;;;;;;;13.99;100.00;100258.98;105423;1262;60446;-45
2023/06/27 00:24:06;;;;;;;0.40;0.10;;;;;;;14.03;100.00;100268.42;105460;1262;60496;-45
2023/06/27 00:26:34;;;;;;;0.20;0.20;;;;;;;14.04;100.00;100283.45;105607;1257;72611;-43
2023/06/27 00:29:02;;;;;;;1.80;0.30;;;;;;;14.08;100.00;100292.34;105498;1262;64106;-43
2023/06/27 00:31:30;;;;;;;0.40;0.40;;;;;;;14.11;100.00;100302.84;105562;1262;71368;-40
2023/06/27 00:33:58;;;;;;;0.20;0.20;;;;;;;14.13;100.00;100306.94;105564;1260;60562;-41
2023/06/27 00:36:26;;;;;;;0.20;0.20;;;;;;;14.15;100.00;100316.39;105572;1260;60335;-43
2023/06/27 00:38:55;;;;;;;1.30;0.50;;;;;;;14.17;100.00;100321.20;105552;1257;73337;-41
2023/06/27 00:41:23;;;;;;;0.40;0.40;;;;;;;14.17;100.00;100326.92;105495;1262;64002;-42
2023/06/27 00:43:51;;;;;;;0.30;0.30;;;;;;;14.18;100.00;100330.86;105566;1257;72685;-41
2023/06/27 00:46:34;;;;;;;2.40;0.60;;;;;;;14.19;100.00;100332.20;105529;1258;60627;-43
2023/06/27 00:49:02;;;;;;;0.40;0.40;;;;;;;14.21;100.00;100329.91;105538;1259;60497;-41
2023/06/27 00:51:30;;;;;;;0.70;0.70;;;;;;;14.21;100.00;100321.03;105576;1256;73842;-43
2023/06/27 00:53:58;;;;;;;0.50;0.40;;;;;;;14.23;100.00;100311.77;105457;1257;65164;-42
2023/06/27 00:56:26;;;;;;;4.50;0.70;;;;;;;14.23;100.00;100300.66;105553;1256;71514;-44
2023/06/27 00:58:54;;;;;;;2.20;0.60;;;;;;;14.23;100.00;100289.90;105480;1257;61650;-44
2023/06/27 01:01:22;;;;;;;1.60;0.40;;;;;;;14.23;100.00;100282.08;105584;1262;60429;-43
2023/06/27 01:03:49;;;;;;;1.20;0.60;;;;;;;14.24;100.00;100272.70;105538;1256;72613;-43
2023/06/27 01:06:29;;;;;;;1.00;0.50;;;;;;;14.24;100.00;100274.05;105545;1257;63907;-42
2023/06/27 01:09:05;;;;;;;0.70;0.50;;;;;;;14.24;100.00;100277.70;105567;1257;71469;-43
2023/06/27 01:11:35;;;;;;;0.50;0.50;;;;;;;14.25;100.00;100274.56;105533;1259;60566;-43
2023/06/27 01:14:03;;;;;;;2.20;0.50;;;;;;;14.25;100.00;100275.61;105567;1261;60397;-43
2023/06/27 01:16:33;;;;;;;1.20;0.50;;;;;;;14.26;100.00;100278.70;105553;1257;72974;-42
2023/06/27 01:19:01;;;;;;;1.50;0.60;;;;;;;14.26;100.00;100277.65;105396;1263;64073;-41
2023/06/27 01:21:29;;;;;;;0.40;0.40;;;;;;;14.27;100.00;100276.75;105600;1260;71565;-41
2023/06/27 01:24:06;;;;;;;2.80;0.50;;;;;;;14.28;100.00;100280.71;105279;1260;60627;-42
2023/06/27 01:26:34;;;;;;;0.60;0.60;;;;;;;14.28;100.00;100287.98;105613;1259;60425;-43
2023/06/27 01:29:02;;;;;;;2.20;0.50;;;;;;;14.29;100.00;100289.70;105529;1258;73763;-42
2023/06/27 01:31:39;;;;;;;2.70;0.50;;;;;;;14.29;100.00;100287.77;105561;1256;65212;-42
2023/06/27 01:34:34;;;;;;;0.50;0.50;;;;;;;14.31;100.00;100292.23;105534;1257;72694;-40
2023/06/27 01:37:18;;;;;;;2.10;0.60;;;;;;;14.33;100.00;100295.98;105585;1260;60429;-41
2023/06/27 01:40:07;;;;;;;1.40;0.40;;;;;;;14.33;100.00;100300.14;105589;1260;60510;-41
2023/06/27 01:42:39;;;;;;;0.70;0.60;;;;;;;14.33;100.00;100301.00;105556;1256;73887;-40
2023/06/27 01:45:08;;;;;;;0.60;0.60;;;;;;;14.34;100.00;100306.36;105561;1256;65670;-45
2023/06/27 01:47:39;;;;;;;0.50;0.50;;;;;;;14.35;100.00;100312.23;105616;1257;71439;-43
2023/06/27 01:50:08;;;;;;;0.60;0.60;;;;;;;14.36;100.00;100307.85;105579;1262;60400;-43
2023/06/27 01:52:39;;;;;;;1.10;0.60;;;;;;;14.35;100.00;100307.16;105515;1256;60419;-43
2023/06/27 01:55:08;;;;;;;0.50;0.50;;;;;;;14.37;100.00;100305.72;105552;1256;72605;-43
2023/06/27 01:57:36;;;;;;;2.10;0.70;;;;;;;14.38;100.00;100294.41;105546;1256;65319;-39
2023/06/27 02:00:06;;;;;;;2.40;0.90;;;;;;;14.38;100.00;100287.64;105578;1258;72640;-40
2023/06/27 02:02:44;;;;;;;0.80;0.80;;;;;;;14.37;100.00;100268.57;105216;1261;348351;-40
2023/06/27 02:06:18;;;;;;;0.80;0.80;;;;;;;14.39;100.00;100250.08;102773;1293;601583;-40
2023/06/27 02:08:45;;;;;;;1.20;1.10;;;;;;;14.36;100.00;100224.17;104910;1269;61657;-40
2023/06/27 02:11:14;;;;;;;0.90;0.70;;;;;;;14.34;100.00;100207.40;105081;1269;60804;-40
2023/06/27 02:13:41;;;;;;;2.10;0.70;;;;;;;14.34;100.00;100205.86;105084;1264;72307;-40
2023/06/27 02:16:11;;;;;;;3.30;1.00;;;;;;;14.34;100.00;100210.54;104838;1264;64037;-41
2023/06/27 02:18:39;;;;;;;0.80;0.80;;;;;;;14.34;100.00;100218.50;105107;1264;71308;-40
2023/06/27 02:21:07;;;;;;;2.70;0.90;;;;;;;14.34;100.00;100219.05;104881;1264;483326;-40
2023/06/27 02:23:34;;;;;;;3.80;0.80;;;;;;;14.33;100.00;100212.13;105221;1266;59302;-43
2023/06/27 02:26:03;;;;;;;0.90;0.70;;;;;;;14.33;100.00;100217.16;105183;1266;70377;-41
2023/06/27 02:28:31;;;;;;;1.40;0.90;;;;;;;14.32;100.00;100213.73;105232;1266;65321;-43
2023/06/27 02:30:58;;;;;;;0.70;0.70;;;;;;;14.33;100.00;100209.71;105243;1262;71993;-44
2023/06/27 02:33:28;;;;;;;3.20;0.80;;;;;;;14.32;100.00;100215.11;105254;1264;60455;-40
2023/06/27 02:35:59;;;;;;;1.00;1.00;;;;;;;14.33;100.00;100227.05;105128;1266;59541;-43
2023/06/27 02:38:27;;;;;;;1.30;0.60;;;;;;;14.34;100.00;100227.02;105132;1263;71802;-44
2023/06/27 02:40:54;;;;;;;3.80;0.90;;;;;;;14.35;100.00;100226.10;105452;1257;64065;-44
2023/06/27 02:43:23;;;;;;;0.70;0.70;;;;;;;14.36;100.00;100227.10;105346;1258;71361;-44
2023/06/27 02:45:50;;;;;;;2.20;0.80;;;;;;;14.34;100.00;100216.41;105549;1260;60420;-44
2023/06/27 02:48:18;;;;;;;0.60;0.60;;;;;;;14.33;100.00;100212.29;105498;1259;59560;-42
2023/06/27 02:50:50;;;;;;;3.80;0.80;;;;;;;14.33;100.00;100206.23;105566;1257;71941;-42
2023/06/27 02:53:18;;;;;;;1.10;1.00;;;;;;;14.32;100.00;100187.89;105505;1263;64070;-41
2023/06/27 02:55:46;;;;;;;1.70;1.00;;;;;;;14.30;100.00;100160.17;105628;1257;70986;-39
2023/06/27 02:58:14;;;;;;;0.80;0.70;;;;;;;14.29;100.00;100126.39;105577;1257;59920;-43
2023/06/27 03:00:42;;;;;;;2.80;0.90;;;;;;;14.28;100.00;100098.30;105578;1260;59637;-41
2023/06/27 03:03:10;;;;;;;2.70;0.90;;;;;;;14.29;100.00;100068.06;105516;1263;73121;-43
2023/06/27 03:05:39;;;;;;;0.80;0.80;;;;;;;14.30;100.00;100058.14;105560;1262;65264;-42
2023/06/27 03:08:07;;;;;;;0.90;0.90;;;;;;;14.32;100.00;100068.63;105582;1256;72652;-43
2023/06/27 03:10:35;;;;;;;0.90;0.90;;;;;;;14.35;100.00;100087.61;105633;1257;59707;-40
2023/06/27 03:13:04;;;;;;;0.90;0.90;;;;;;;14.36;100.00;100089.30;105560;1255;59975;-42
2023/06/27 03:15:33;;;;;;;2.80;0.90;;;;;;;14.37;100.00;100083.88;105627;1257;71316;-42
2023/06/27 03:18:02;;;;;;;2.90;0.60;;;;;;;14.38;100.00;100086.10;105527;1256;65175;-42
2023/06/27 03:20:31;;;;;;;4.60;0.90;;;;;;;14.42;100.00;100101.92;105686;1257;71700;-40
2023/06/27 03:22:59;;;;;;;3.50;0.80;;;;;;;14.42;100.00;100089.08;105588;1257;59671;-41
2023/06/27 03:25:27;;;;;;;1.00;0.90;;;;;;;14.44;100.00;100091.05;105604;1260;59689;-41
2023/06/27 03:27:55;;;;;;;0.70;0.70;;;;;;;14.46;100.00;100091.88;105555;1256;70852;-42
2023/06/27 03:30:23;;;;;;;1.10;1.00;;;;;;;14.49;100.00;100104.75;105602;1256;64102;-40
2023/06/27 03:32:52;;;;;;;0.80;0.80;;;;;;;14.53;100.00;100119.19;105621;1256;73093;-40
2023/06/27 03:35:20;;;;;;;3.00;1.00;;;;;;;14.55;100.00;100120.52;105589;1255;59809;-41
2023/06/27 03:37:50;;;;;;;1.10;0.90;;;;;;;14.56;100.00;100124.79;105624;1260;60177;-39
2023/06/27 03:40:19;;;;;;;0.80;0.80;;;;;;;14.60;100.00;100141.66;105525;1256;71776;-41
2023/06/27 03:42:47;;;;;;;6.30;1.00;;;;;;;14.62;100.00;100140.52;105675;1257;64106;-42
2023/06/27 03:45:16;;;;;;;0.70;0.70;;;;;;;14.65;100.00;100135.02;105616;1257;71703;-40
2023/06/27 03:47:43;;;;;;;1.50;1.00;;;;;;;14.68;100.00;100126.43;105591;1257;59823;-41
2023/06/27 03:50:11;;;;;;;1.60;1.00;;;;;;;14.67;100.00;100115.16;105563;1257;59688;-43
2023/06/27 03:52:39;;;;;;;0.90;0.90;;;;;;;14.70;100.00;100127.04;105630;1257;71823;-43
2023/06/27 03:55:07;;;;;;;1.10;0.90;;;;;;;14.73;100.00;100135.97;105604;1261;65158;-40
2023/06/27 03:57:35;;;;;;;1.10;1.10;;;;;;;14.74;100.00;100132.80;105646;1257;72650;-41
2023/06/27 04:00:07;;;;;;;2.60;0.90;;;;;;;14.76;100.00;100135.47;105511;1258;59730;-40
2023/06/27 04:02:41;;;;;;;2.00;1.20;;;;;;;14.82;100.00;100146.04;105604;1256;59545;-40
2023/06/27 04:05:10;;;;;;;1.60;1.50;;;;;;;14.88;100.00;100153.92;105638;1256;71845;-44
2023/06/27 04:07:40;;;;;;;0.80;0.80;;;;;;;14.97;100.00;100157.41;105621;1257;64068;-42
2023/06/27 04:10:10;;;;;;;4.50;0.90;;;;;;;15.05;100.00;100148.23;105649;1257;72152;-43
2023/06/27 04:12:37;;;;;;;1.20;1.20;;;;;;;15.11;100.00;100133.34;105597;1257;59688;-44
2023/06/27 04:15:06;;;;;;;1.20;1.20;;;;;;;15.15;100.00;100080.70;105626;1261;60006;-41
2023/06/27 04:17:34;;;;;;;2.50;0.80;;;;;;;15.16;100.00;100003.48;105558;1262;72286;-42
2023/06/27 04:20:03;;;;;;;2.50;1.10;;;;;;;15.21;100.00;99956.33;105616;1257;63916;-42
2023/06/27 04:22:31;;;;;;;1.00;1.00;;;;;;;15.31;100.00;99940.23;105570;1258;71445;-41
2023/06/27 04:25:01;;;;;;;0.90;0.90;;;;;;;15.43;100.00;99918.31;105618;1257;59672;-42
2023/06/27 04:27:29;;;;;;;0.70;0.70;;;;;;;15.53;100.00;99891.23;105621;1258;59625;-45
2023/06/27 04:29:57;;;;;;;1.10;1.10;;;;;;;15.60;100.00;99835.77;105652;1261;71222;-39
2023/06/27 04:32:25;;;;;;;1.30;1.20;;;;;;;15.64;100.00;99791.41;105591;1261;65181;-41
2023/06/27 04:34:57;;;;;;;1.00;1.00;;;;;;;15.73;100.00;99792.52;105590;1257;71439;-42
2023/06/27 04:37:25;;;;;;;1.10;1.00;;;;;;;15.85;100.00;99803.94;105623;1258;60129;-40
2023/06/27 04:39:53;;;;;;;9.80;1.30;;;;;;;15.94;100.00;99802.80;105600;1261;59624;-40
2023/06/27 04:42:21;;;;;;;3.50;1.10;;;;;;;16.04;100.00;99796.77;105553;1257;72967;-40
2023/06/27 04:44:48;;;;;;;1.20;1.10;;;;;;;16.05;100.00;99766.41;105596;1256;65263;-43
2023/06/27 04:47:16;;;;;;;2.40;0.80;;;;;;;16.07;100.00;99752.39;105591;1260;71343;-42
2023/06/27 04:49:44;;;;;;;2.20;1.30;;;;;;;16.00;100.00;99731.50;105576;1257;61666;-43
2023/06/27 04:52:11;;;;;;;0.90;0.90;;;;;;;15.95;100.00;99731.80;105602;1258;59567;-40
2023/06/27 04:54:39;;;;;;;1.50;1.20;;;;;;;15.87;100.00;99718.10;105588;1257;71608;-40
2023/06/27 04:57:06;;;;;;;1.80;1.10;;;;;;;15.84;100.00;99729.70;105587;1258;63273;-43
2023/06/27 04:59:39;;;;;;;3.10;1.10;;;;;;;15.74;100.00;99705.66;105609;1261;71431;-41
2023/06/27 05:02:07;;;;;;;0.90;0.90;;;;;;;15.71;100.00;99711.73;105581;1256;59708;-43
2023/06/27 05:04:35;;;;;;;1.10;1.00;;;;;;;15.74;100.00;99706.58;105567;1261;59625;-43
2023/06/27 05:07:06;;;;;;;0.90;0.90;;;;;;;15.73;100.00;99679.83;105428;1255;71774;-45
2023/06/27 05:09:34;;;;;;;4.30;1.00;;;;;;;15.70;100.00;99669.35;105622;1256;64336;-43
2023/06/27 05:12:02;;;;;;;0.60;0.60;;;;;;;15.68;100.00;99666.34;105553;1258;72672;-43
2023/06/27 05:14:29;;;;;;;0.70;0.70;;;;;;;15.68;100.00;99672.27;105600;1256;59964;-42
2023/06/27 05:16:57;;;;;;;3.50;0.90;;;;;;;15.73;100.00;99676.34;105625;1258;60047;-42
2023/06/27 05:19:25;;;;;;;1.30;0.80;;;;;;;15.76;100.00;99664.20;105582;1257;71795;-43
2023/06/27 05:21:52;;;;;;;2.00;0.80;;;;;;;15.80;100.00;99662.92;105634;1257;63566;-40
2023/06/27 05:24:20;;;;;;;1.80;0.90;;;;;;;15.90;100.00;99674.45;105635;1257;72677;-42
2023/06/27 05:26:50;;;;;;;5.50;1.00;;;;;;;15.94;100.00;99664.85;109207;1256;59683;-43
2023/06/27 05:29:18;;;;;;;1.40;0.90;;;;;;;16.02;100.00;99659.02;109264;1256;60010;-41
2023/06/27 05:31:45;;;;;;;3.40;1.00;;;;;;;16.13;100.00;99661.41;109214;1256;73044;-43
2023/06/27 05:39:40;;;;;;;1.50;1.40;;;;;;;16.45;100.00;99635.33;103354;1284;600721;-43
2023/06/27 05:42:08;;;;;;;1.00;1.00;;;;;;;16.32;100.00;99653.60;104985;1269;59333;-41
2023/06/27 05:44:36;;;;;;;4.20;1.00;;;;;;;16.30;100.00;99670.96;105199;1270;60223;-42
2023/06/27 05:47:04;;;;;;;2.60;0.70;;;;;;;16.24;100.00;99668.48;105060;1266;70964;-43
2023/06/27 05:49:32;;;;;;;6.90;1.00;;;;;;;16.23;100.00;99656.14;105079;1267;64032;-44
2023/06/27 05:52:00;;;;;;;4.10;1.00;;;;;;;16.37;100.00;99660.11;105034;1269;72736;-43
2023/06/27 05:54:27;;;;;;;5.10;1.20;;;;;;;16.68;100.00;99669.19;105031;1263;220841;-45
2023/06/27 05:56:55;;;;;;;2.50;0.90;;;;;;;17.06;100.00;99651.41;105382;1264;59318;-45
2023/06/27 05:59:23;;;;;;;13.10;1.60;;;;;;;17.26;100.00;99612.41;105474;1261;70852;-42
2023/06/27 06:01:50;;;;;;;6.40;1.00;;;;;;;17.31;100.00;99610.33;105517;1263;65139;-43
2023/06/27 06:04:19;;;;;;;3.20;0.90;;;;;;;17.37;100.00;99618.73;105364;1261;72638;-41
2023/06/27 06:06:46;;;;;;;1.60;0.70;;;;;;;17.19;100.00;99641.38;105514;1259;59697;-43
2023/06/27 06:09:14;;;;;;;3.40;0.80;;;;;;;17.07;100.00;99644.39;105510;1262;59637;-44
2023/06/27 06:11:42;;;;;;;5.60;1.30;;;;;;;17.08;100.00;99641.37;105334;1260;71853;-43
2023/06/27 06:14:09;;;;;;;5.00;0.80;;;;;;;17.18;100.00;99636.59;105503;1260;64495;-41
2023/06/27 06:16:37;;;;;;;0.70;0.70;;;;;;;17.35;100.00;99625.98;105494;1263;71448;-41
2023/06/27 06:19:07;;;;;;;8.30;0.70;;;;;;;17.68;100.00;99621.06;105385;1263;60497;-43
2023/06/27 06:21:37;;;;;;;4.80;0.70;;;;;;;17.92;100.00;99642.61;105543;1263;59535;-43
2023/06/27 06:24:05;;;;;;;13.30;0.90;;;;;;;17.89;100.00;99665.34;105497;1263;71544;-44
2023/06/27 06:26:32;;;;;;;0.40;0.40;;;;;;;17.84;100.00;99668.56;105505;1259;63899;-44
2023/06/27 06:29:01;;;;;;;0.70;0.50;;;;;;;17.83;100.00;99670.95;105360;1261;72410;-45
2023/06/27 06:31:29;;;;;;;0.70;0.60;;;;;;;17.78;100.00;99666.65;105413;1260;60737;-42
2023/06/27 06:33:57;;;;;;;1.20;0.60;;;;;;;17.80;100.00;99673.73;105499;1263;59701;-43
2023/06/27 06:36:24;;;;;;;3.10;0.60;;;;;;;17.86;100.00;99658.48;105433;1263;72203;-43
2023/06/27 06:38:52;;;;;;;1.20;0.70;;;;;;;18.08;100.00;99654.73;105327;1259;63907;-42
2023/06/27 06:41:20;;;;;;;0.70;0.70;;;;;;;18.16;100.00;99682.55;105355;1264;71249;-41
2023/06/27 06:43:48;;;;;;;1.30;0.90;;;;;;;18.24;100.00;99686.73;105354;1260;59685;-42
2023/06/27 06:46:16;;;;;;;4.40;0.90;;;;;;;18.22;100.00;99705.25;105362;1261;59620;-43
2023/06/27 06:48:43;;;;;;;135.40;7.50;;;;;;;18.04;100.00;99697.04;105288;1260;71758;-42
2023/06/27 06:51:11;;;;;;;5.60;1.20;;;;;;;18.02;100.00;99695.61;105288;1261;65240;-42
2023/06/27 06:53:39;;;;;;;7.10;1.20;;;;;;;18.21;100.00;99679.42;105355;1261;71348;-42
2023/06/27 06:56:06;;;;;;;7.10;0.90;;;;;;;18.49;100.00;99678.91;105255;1261;61112;-44
2023/06/27 06:58:34;;;;;;;41.20;4.40;;;;;;;18.58;100.00;99711.02;105260;1264;59633;-41
2023/06/27 07:01:01;;;;;;;30.70;2.30;;;;;;;18.58;100.00;99727.63;105211;1260;72852;-42
2023/06/27 07:03:31;;;;;;;2.10;1.10;;;;;;;18.63;100.00;99734.46;105323;1260;64124;-42
2023/06/27 07:05:58;;;;;;;7.40;4.10;;;;;;;18.77;100.00;99747.19;105280;1261;71768;-43
2023/06/27 07:08:26;;;;;;;7.10;3.70;;;;;;;18.86;100.00;99766.75;105246;1260;61026;-44
2023/06/27 07:10:54;;;;;;;6.30;2.70;;;;;;;18.94;100.00;99775.11;105206;1264;59535;-44
2023/06/27 07:13:22;;;;;;;3.40;1.00;;;;;;;18.96;100.00;99786.73;105266;1260;71832;-41
2023/06/27 07:15:49;;;;;;;6.60;1.40;;;;;;;19.01;100.00;99783.64;105251;1260;64036;-42
2023/06/27 07:18:18;;;;;;;0.60;0.60;;;;;;;19.06;100.00;99791.37;105215;1260;71455;-45
2023/06/27 07:20:46;;;;;;;0.60;0.60;;;;;;;19.14;100.00;99797.34;105234;1260;59720;-43
2023/06/27 07:23:15;;;;;;;0.90;0.90;;;;;;;19.27;100.00;99785.83;105405;1261;59640;-45
2023/06/27 07:25:43;;;;;;;4.00;1.00;;;;;;;19.46;100.00;99777.59;105447;1263;71849;-44
2023/06/27 07:28:11;;;;;;;1.10;1.00;;;;;;;19.39;100.00;99792.20;105210;1260;65515;-45
2023/06/27 07:30:39;;;;;;;1.50;1.10;;;;;;;19.25;100.00;99802.02;105185;1265;70797;-43
2023/06/27 07:33:08;;;;;;;1.20;1.20;;;;;;;19.28;100.00;99794.34;105201;1264;59626;-43
2023/06/27 07:35:35;;;;;;;1.80;1.40;;;;;;;19.40;100.00;99788.82;105224;1264;59634;-43
2023/06/27 07:38:03;;;;;;;3.70;1.40;;;;;;;19.50;100.00;99791.84;105235;1260;71742;-41
2023/06/27 07:40:31;;;;;;;3.80;1.10;;;;;;;19.67;100.00;99782.67;105245;1264;63900;-42
2023/06/27 07:42:58;;;;;;;4.50;1.40;;;;;;;19.67;100.00;99801.91;105234;1260;71593;-42
2023/06/27 07:45:27;;;;;;;4.50;1.00;;;;;;;19.55;100.00;99821.95;105245;1265;59768;-42
2023/06/27 07:47:55;;;;;;;1.10;1.00;;;;;;;19.51;100.00;99834.96;105276;1264;59506;-44
2023/06/27 07:50:22;;;;;;;6.30;1.30;;;;;;;19.57;100.00;99830.61;105237;1261;72292;-45
2023/06/27 07:52:50;;;;;;;1.50;1.40;;;;;;;19.57;100.00;99823.43;105188;1264;64049;-43
2023/06/27 07:55:18;;;;;;;1.80;1.50;;;;;;;19.44;100.00;99828.09;105252;1264;72768;-43
2023/06/27 07:57:46;;;;;;;6.00;1.50;;;;;;;19.31;100.00;99817.92;105273;1264;59691;-44
2023/06/27 08:00:15;;;;;;;5.70;1.20;;;;;;;19.46;100.00;99798.38;105225;1264;60047;-45
2023/06/27 08:02:44;;;;;;;2.30;1.20;;;;;;;19.58;100.00;99807.11;105296;1264;73485;-44
2023/06/27 08:05:13;;;;;;;1.20;1.10;;;;;;;19.52;100.00;99823.86;105650;1260;65192;-43
2023/06/27 08:07:41;;;;;;;14.30;1.50;;;;;;;19.50;100.00;99820.38;105614;1260;72572;-44
2023/06/27 08:10:09;;;;;;;1.40;1.10;;;;;;;19.68;100.00;99811.99;105716;1260;59878;-42
2023/06/27 08:12:38;;;;;;;12.00;1.70;;;;;;;19.85;100.00;99818.75;105637;1257;59601;-43
2023/06/27 08:15:06;;;;;;;1.60;1.50;;;;;;;19.70;100.00;99840.77;105621;1257;73011;-44
2023/06/27 08:17:34;;;;;;;10.40;1.70;;;;;;;19.87;100.00;99830.05;105624;1257;65251;-44
2023/06/27 08:20:03;;;;;;;3.80;1.40;;;;;;;20.18;100.00;99816.58;105858;1257;71362;-43
2023/06/27 08:22:31;;;;;;;3.40;1.30;;;;;;;20.35;100.00;99825.53;105867;1256;60008;-44
2023/06/27 08:24:59;;;;;;;2.20;1.10;;;;;;;20.18;100.00;99850.60;105823;1257;59608;-42
2023/06/27 08:27:27;;;;;;;2.10;1.40;;;;;;;20.20;100.00;99852.19;105854;1253;72037;-42
2023/06/27 08:29:54;;;;;;;3.40;1.10;;;;;;;20.34;100.00;99839.65;105875;1253;64258;-45
2023/06/27 08:32:22;;;;;;;4.90;1.50;;;;;;;20.57;100.00;99846.67;105796;1257;71369;-44
2023/06/27 08:34:50;;;;;;;6.60;1.50;;;;;;;20.76;100.00;99843.09;105831;1255;59717;-44
2023/06/27 08:37:18;;;;;;;3.00;1.30;;;;;;;20.82;100.00;99838.99;105889;1257;59981;-42
2023/06/27 08:39:51;;;;;;;1.90;1.20;;;;;;;20.69;100.00;99874.73;105799;1257;71814;-44
2023/06/27 08:42:19;;;;;;;9.00;1.60;;;;;;;20.65;100.00;99854.52;105860;1254;63942;-44
2023/06/27 08:44:47;;;;;;;2.30;1.40;;;;;;;20.30;100.00;99891.60;105809;1254;72667;-44
2023/06/27 08:47:15;;;;;;;3.90;1.50;;;;;;;20.27;100.00;99885.30;105851;1254;59707;-45
2023/06/27 08:49:43;;;;;;;1.50;1.40;;;;;;;20.43;100.00;99875.33;105802;1253;59963;-43
2023/06/27 08:52:12;;;;;;;1.60;1.30;;;;;;;20.58;100.00;99867.08;105808;1257;72108;-42
2023/06/27 08:54:43;;;;;;;1.10;1.10;;;;;;;20.75;100.00;99871.67;105855;1257;64129;-45
2023/06/27 08:57:11;;;;;;;1.30;1.30;;;;;;;20.94;100.00;99864.95;105751;1254;71829;-43
2023/06/27 08:59:39;;;;;;;3.90;1.30;;;;;;;21.05;100.00;99879.81;105859;1257;59743;-44
2023/06/27 09:02:06;;;;;;;3.00;0.90;;;;;;;21.10;100.00;99874.70;105851;1257;59564;-41
2023/06/27 09:04:34;;;;;;;4.10;1.70;;;;;;;21.05;100.00;99876.60;105707;1252;71835;-42
2023/06/27 09:07:03;;;;;;;3.70;1.50;;;;;;;21.05;100.00;99881.71;105700;1260;65225;-44
2023/06/27 09:09:31;;;;;;;8.70;2.30;;;;;;;21.02;100.00;99885.61;105886;1257;72663;-43
2023/06/27 09:12:00;;;;;;;1.10;1.10;;;;;;;20.84;100.00;99891.41;105780;1257;59663;-43
2023/06/27 09:14:27;;;;;;;2.30;1.00;;;;;;;20.84;100.00;99909.80;105872;1257;60015;-43
2023/06/27 09:16:55;;;;;;;3.80;1.10;;;;;;;21.11;100.00;99888.15;105672;1259;71619;-42
2023/06/27 09:19:23;;;;;;;5.60;1.40;;;;;;;21.34;100.00;99898.05;105897;1254;65280;-41
2023/06/27 09:21:50;;;;;;;8.60;1.70;;;;;;;21.68;100.00;99888.64;105809;1255;71441;-45
2023/06/27 09:24:22;;;;;;;1.50;1.30;;;;;;;21.95;96.59;99861.17;105835;1256;59646;-43
2023/06/27 09:26:50;;;;;;;2.30;1.50;;;;;;;22.05;96.96;99877.27;105851;1256;59650;-44
2023/06/27 09:29:19;;;;;;;2.50;1.30;;;;;;;22.13;87.86;99866.34;105795;1257;72010;-42
2023/06/27 09:31:47;;;;;;;8.30;1.20;;;;;;;22.02;86.78;99886.81;105824;1257;65278;-44
2023/06/27 09:34:15;;;;;;;2.80;1.10;;;;;;;21.88;88.50;99899.64;105706;1257;72712;-46
2023/06/27 09:36:43;;;;;;;1.70;1.50;;;;;;;21.86;95.51;99915.02;105829;1253;59717;-44
2023/06/27 09:39:14;;;;;;;5.50;1.20;;;;;;;21.92;90.63;99897.91;105926;1257;59627;-43
2023/06/27 09:41:49;;;;;;;5.70;1.40;;;;;;;21.74;98.15;99926.27;105889;1253;71841;-44
2023/06/27 09:44:19;;;;;;;1.10;0.90;;;;;;;21.73;100.00;99928.46;105827;1253;65215;-44
2023/06/27 09:46:47;;;;;;;3.40;1.30;;;;;;;21.80;95.11;99908.45;105949;1253;72592;-43
2023/06/27 09:49:16;;;;;;;2.80;1.20;;;;;;;21.61;91.26;99905.96;105814;1253;60463;-43
2023/06/27 09:51:45;;;;;;;0.90;0.90;;;;;;;21.44;100.00;99952.67;105701;1256;60341;-45
2023/06/27 09:54:13;;;;;;;2.70;1.20;;;;;;;21.53;100.00;99947.41;105837;1257;73864;-46
2023/06/27 09:56:47;;;;;;;1.30;1.20;;;;;;;21.67;100.00;99922.41;105857;1252;63952;-43
2023/06/27 09:59:16;;;;;;;1.60;1.10;;;;;;;21.54;100.00;99928.17;105818;1254;72638;-42
2023/06/27 10:01:51;;;;;;;3.00;1.30;;;;;;;21.35;100.00;99934.16;105810;1253;60869;-43
2023/06/27 10:04:19;;;;;;;8.50;1.20;;;;;;;21.20;100.00;99926.44;105881;1254;60398;-44
2023/06/27 10:07:08;;;;;;;4.40;1.10;;;;;;;21.22;100.00;99919.45;105826;1253;74036;-45
2023/06/27 10:09:37;;;;;;;3.80;1.10;;;;;;;21.41;99.90;99914.06;105877;1253;65316;-44
2023/06/27 10:12:07;;;;;;;7.40;1.00;;;;;;;21.46;100.00;99933.89;105831;1257;71433;-43
2023/06/27 10:14:35;;;;;;;0.90;0.90;;;;;;;21.41;100.00;99927.61;105840;1257;60428;-44
2023/06/27 10:17:04;;;;;;;3.90;1.10;;;;;;;21.46;100.00;99947.07;105940;1256;60521;-44
2023/06/27 10:19:35;;;;;;;8.20;1.40;;;;;;;21.67;100.00;99931.02;105834;1253;72627;-45
2023/06/27 10:22:09;;;;;;;4.20;1.00;;;;;;;21.83;99.74;99900.87;105845;1254;63919;-44
2023/06/27 10:24:39;;;;;;;7.20;0.90;;;;;;;21.73;93.80;99900.76;105834;1257;71433;-43
2023/06/27 10:27:09;;;;;;;1.70;1.10;;;;;;;21.58;100.00;99934.08;105844;1257;60531;-45
2023/06/27 10:29:44;;;;;;;1.70;0.90;;;;;;;21.62;100.00;99947.14;105738;1259;60473;-43
2023/06/27 10:32:15;;;;;;;1.60;1.50;;;;;;;21.88;100.00;99938.23;105818;1253;72808;-41
2023/06/27 10:34:43;;;;;;;5.60;1.10;;;;;;;22.07;99.71;99921.56;105926;1256;65345;-42
2023/06/27 10:37:24;;;;;;;5.10;1.10;;;;;;;22.25;93.29;99917.98;105815;1253;74258;-43
2023/06/27 10:39:56;;;;;;;1.20;1.00;;;;;;;22.15;92.41;99927.34;105874;1253;60494;-43
2023/06/27 10:42:24;;;;;;;3.70;1.30;;;;;;;22.20;100.00;99946.44;105869;1255;60404;-43
2023/06/27 10:45:05;;;;;;;2.30;1.30;;;;;;;22.33;94.17;99919.98;105911;1256;73783;-42
2023/06/27 10:47:38;;;;;;;7.20;1.30;;;;;;;22.30;86.74;99905.94;105898;1253;65235;-45
2023/06/27 10:50:08;;;;;;;7.70;1.50;;;;;;;22.39;94.17;99926.57;105935;1254;73575;-43
2023/06/27 10:52:36;;;;;;;13.60;1.70;;;;;;;22.60;85.15;99892.80;105853;1254;60627;-42
2023/06/27 10:55:13;;;;;;;51.30;2.80;;;;;;;22.53;78.22;99877.33;105885;1253;60600;-43
2023/06/27 10:57:49;;;;;;;3.30;1.40;;;;;;;22.32;78.49;99905.85;105919;1253;73640;-43
2023/06/27 11:00:34;;;;;;;3.00;1.70;;;;;;;22.02;82.07;99929.16;105872;1253;65173;-43
2023/06/27 11:03:04;;;;;;;2.30;1.30;;;;;;;21.89;92.93;99946.98;105840;1254;71407;-42
2023/06/27 11:05:51;;;;;;;1.80;1.50;;;;;;;22.03;90.15;99928.85;105857;1256;60650;-43
2023/06/27 11:08:20;;;;;;;13.60;1.70;;;;;;;22.23;87.75;99921.09;105808;1253;60387;-45
2023/06/27 11:10:52;;;;;;;3.50;1.50;;;;;;;22.34;81.01;99896.02;105893;1253;72593;-42
2023/06/27 11:13:21;;;;;;;7.40;1.70;;;;;;;22.51;88.40;99920.52;105745;1260;65011;-45
2023/06/27 11:15:53;;;;;;;5.20;1.60;;;;;;;22.75;77.99;99870.70;105851;1253;72604;-43
2023/06/27 11:18:25;;;;;;;8.90;2.20;;;;;;;22.83;78.83;99887.67;105861;1254;60537;-45
2023/06/27 11:20:53;;;;;;;5.10;1.40;;;;;;;22.91;80.52;99902.88;105892;1252;60431;-45
2023/06/27 11:23:22;;;;;;;4.00;1.40;;;;;;;23.15;84.78;99915.10;105917;1254;73773;-44
2023/06/27 11:25:49;;;;;;;4.20;1.30;;;;;;;23.32;74.39;99842.09;105852;1256;65173;-44
2023/06/27 11:28:18;;;;;;;3.60;1.00;;;;;;;23.27;71.31;99829.11;105853;1253;72610;-42
2023/06/27 11:30:46;;;;;;;1.30;1.20;;;;;;;23.29;71.53;99854.15;105846;1257;60554;-42